sensor_id;sensor_type;location;lat;lon;timestamp;P1;durP1;ratioP1;P2;durP2;ratioP2
6442;SDS011;3254;47.372;8.512;2023-04-03T00:01:37;8.20;;;7.40;;
6442;SDS011;3254;47.372;8.512;2023-04-03T00:04:04;7.80;;;7.00;;
6442;SDS011;3254;47.372;8.512;2023-04-03T00:06:31;8.13;;;7.30;;
6442;SDS011;3254;47.372;8.512;2023-04-03T00:08:58;8.83;;;8.00;;
6442;SDS011;3254;47.372;8.512;2023-04-03T00:11:23;9.00;;;8.17;;
6442;SDS011;3254;47.372;8.512;2023-04-03T00:13:50;9.60;;;8.20;;
6442;SDS011;3254;47.372;8.512;2023-04-03T00:16:15;9.33;;;8.37;;
6442;SDS011;3254;47.372;8.512;2023-04-03T00:18:42;10.90;;;9.03;;
6442;SDS011;3254;47.372;8.512;2023-04-03T00:21:09;7.77;;;7.07;;
6442;SDS011;3254;47.372;8.512;2023-04-03T00:23:36;8.75;;;7.85;;
6442;SDS011;3254;47.372;8.512;2023-04-03T00:26:03;8.95;;;8.05;;
6442;SDS011;3254;47.372;8.512;2023-04-03T00:28:30;7.80;;;7.10;;
6442;SDS011;3254;47.372;8.512;2023-04-03T00:30:56;6.73;;;6.20;;
6442;SDS011;3254;47.372;8.512;2023-04-03T00:33:21;6.40;;;5.90;;
6442;SDS011;3254;47.372;8.512;2023-04-03T00:35:48;6.67;;;6.07;;
6442;SDS011;3254;47.372;8.512;2023-04-03T00:38:14;5.65;;;5.22;;
6442;SDS011;3254;47.372;8.512;2023-04-03T00:40:46;4.63;;;4.33;;
6442;SDS011;3254;47.372;8.512;2023-04-03T00:43:14;4.50;;;4.30;;
6442;SDS011;3254;47.372;8.512;2023-04-03T00:45:44;4.88;;;4.47;;
6442;SDS011;3254;47.372;8.512;2023-04-03T00:48:36;5.33;;;4.90;;
6442;SDS011;3254;47.372;8.512;2023-04-03T00:51:02;4.63;;;4.33;;
6442;SDS011;3254;47.372;8.512;2023-04-03T00:53:35;5.40;;;4.95;;
6442;SDS011;3254;47.372;8.512;2023-04-03T00:56:06;5.85;;;5.15;;
6442;SDS011;3254;47.372;8.512;2023-04-03T00:59:37;6.18;;;5.53;;
6442;SDS011;3254;47.372;8.512;2023-04-03T01:01:41;4.73;;;4.40;;
6442;SDS011;3254;47.372;8.512;2023-04-03T01:04:25;4.67;;;4.40;;
6442;SDS011;3254;47.372;8.512;2023-04-03T01:06:56;6.20;;;5.70;;
6442;SDS011;3254;47.372;8.512;2023-04-03T01:09:25;5.88;;;5.45;;
6442;SDS011;3254;47.372;8.512;2023-04-03T01:11:52;6.57;;;6.05;;
6442;SDS011;3254;47.372;8.512;2023-04-03T01:14:18;6.73;;;6.13;;
6442;SDS011;3254;47.372;8.512;2023-04-03T01:16:54;7.40;;;6.80;;
6442;SDS011;3254;47.372;8.512;2023-04-03T01:19:19;7.05;;;6.55;;
6442;SDS011;3254;47.372;8.512;2023-04-03T01:24:45;6.38;;;5.88;;
6442;SDS011;3254;47.372;8.512;2023-04-03T01:27:12;7.13;;;6.53;;
6442;SDS011;3254;47.372;8.512;2023-04-03T01:29:37;5.63;;;5.20;;
6442;SDS011;3254;47.372;8.512;2023-04-03T01:32:05;7.00;;;6.45;;
6442;SDS011;3254;47.372;8.512;2023-04-03T01:34:30;8.80;;;6.47;;
6442;SDS011;3254;47.372;8.512;2023-04-03T01:36:56;7.73;;;7.03;;
6442;SDS011;3254;47.372;8.512;2023-04-03T01:39:22;7.50;;;6.80;;
6442;SDS011;3254;47.372;8.512;2023-04-03T01:41:48;6.83;;;6.30;;
6442;SDS011;3254;47.372;8.512;2023-04-03T01:44:13;7.20;;;6.50;;
6442;SDS011;3254;47.372;8.512;2023-04-03T01:46:40;6.57;;;6.00;;
6442;SDS011;3254;47.372;8.512;2023-04-03T01:49:07;7.00;;;6.30;;
6442;SDS011;3254;47.372;8.512;2023-04-03T01:51:33;7.87;;;6.90;;
6442;SDS011;3254;47.372;8.512;2023-04-03T01:54:00;6.23;;;5.73;;
6442;SDS011;3254;47.372;8.512;2023-04-03T01:56:25;7.00;;;6.40;;
6442;SDS011;3254;47.372;8.512;2023-04-03T01:58:52;6.97;;;6.28;;
6442;SDS011;3254;47.372;8.512;2023-04-03T02:01:19;7.53;;;6.85;;
6442;SDS011;3254;47.372;8.512;2023-04-03T02:03:44;7.03;;;6.43;;
6442;SDS011;3254;47.372;8.512;2023-04-03T02:06:10;7.33;;;6.73;;
6442;SDS011;3254;47.372;8.512;2023-04-03T02:08:36;8.17;;;7.27;;
6442;SDS011;3254;47.372;8.512;2023-04-03T02:11:01;9.30;;;8.50;;
6442;SDS011;3254;47.372;8.512;2023-04-03T02:13:30;9.05;;;7.78;;
6442;SDS011;3254;47.372;8.512;2023-04-03T02:15:55;11.07;;;7.70;;
6442;SDS011;3254;47.372;8.512;2023-04-03T02:18:23;8.73;;;7.68;;
6442;SDS011;3254;47.372;8.512;2023-04-03T02:20:48;8.97;;;7.67;;
6442;SDS011;3254;47.372;8.512;2023-04-03T02:23:14;9.63;;;7.90;;
6442;SDS011;3254;47.372;8.512;2023-04-03T02:25:40;8.20;;;7.40;;
6442;SDS011;3254;47.372;8.512;2023-04-03T02:28:06;8.80;;;8.00;;
6442;SDS011;3254;47.372;8.512;2023-04-03T02:30:35;10.70;;;7.87;;
6442;SDS011;3254;47.372;8.512;2023-04-03T02:33:00;8.93;;;7.97;;
6442;SDS011;3254;47.372;8.512;2023-04-03T02:35:26;9.47;;;8.40;;
6442;SDS011;3254;47.372;8.512;2023-04-03T02:37:51;7.90;;;7.20;;
6442;SDS011;3254;47.372;8.512;2023-04-03T02:40:18;8.30;;;7.50;;
6442;SDS011;3254;47.372;8.512;2023-04-03T02:42:44;7.43;;;6.25;;
6442;SDS011;3254;47.372;8.512;2023-04-03T02:45:10;7.43;;;6.83;;
6442;SDS011;3254;47.372;8.512;2023-04-03T02:47:35;8.00;;;7.30;;
6442;SDS011;3254;47.372;8.512;2023-04-03T02:50:01;7.13;;;6.37;;
6442;SDS011;3254;47.372;8.512;2023-04-03T02:52:27;6.97;;;6.33;;
6442;SDS011;3254;47.372;8.512;2023-04-03T02:54:52;6.40;;;5.97;;
6442;SDS011;3254;47.372;8.512;2023-04-03T02:57:19;6.32;;;5.70;;
6442;SDS011;3254;47.372;8.512;2023-04-03T02:59:44;6.43;;;5.93;;
6442;SDS011;3254;47.372;8.512;2023-04-03T03:02:11;5.97;;;5.47;;
6442;SDS011;3254;47.372;8.512;2023-04-03T03:04:37;5.37;;;4.97;;
6442;SDS011;3254;47.372;8.512;2023-04-03T03:07:03;5.17;;;4.87;;
6442;SDS011;3254;47.372;8.512;2023-04-03T03:09:29;5.50;;;5.10;;
6442;SDS011;3254;47.372;8.512;2023-04-03T03:11:55;8.23;;;4.85;;
6442;SDS011;3254;47.372;8.512;2023-04-03T03:14:21;4.40;;;4.20;;
6442;SDS011;3254;47.372;8.512;2023-04-03T03:16:48;4.78;;;4.47;;
6442;SDS011;3254;47.372;8.512;2023-04-03T03:19:13;5.10;;;4.80;;
6442;SDS011;3254;47.372;8.512;2023-04-03T03:21:41;4.63;;;4.38;;
6442;SDS011;3254;47.372;8.512;2023-04-03T03:24:07;4.20;;;3.90;;
6442;SDS011;3254;47.372;8.512;2023-04-03T03:26:33;5.00;;;4.70;;
6442;SDS011;3254;47.372;8.512;2023-04-03T03:28:59;4.40;;;4.10;;
6442;SDS011;3254;47.372;8.512;2023-04-03T03:31:26;4.93;;;4.63;;
6442;SDS011;3254;47.372;8.512;2023-04-03T03:33:51;5.20;;;4.77;;
6442;SDS011;3254;47.372;8.512;2023-04-03T03:36:17;4.83;;;4.63;;
6442;SDS011;3254;47.372;8.512;2023-04-03T03:38:42;4.93;;;4.60;;
6442;SDS011;3254;47.372;8.512;2023-04-03T03:41:08;5.50;;;5.13;;
6442;SDS011;3254;47.372;8.512;2023-04-03T03:43:33;5.60;;;5.20;;
6442;SDS011;3254;47.372;8.512;2023-04-03T03:45:59;5.53;;;5.03;;
6442;SDS011;3254;47.372;8.512;2023-04-03T03:48:26;4.60;;;4.38;;
6442;SDS011;3254;47.372;8.512;2023-04-03T03:50:52;5.50;;;5.10;;
6442;SDS011;3254;47.372;8.512;2023-04-03T03:53:18;6.00;;;5.37;;
6442;SDS011;3254;47.372;8.512;2023-04-03T03:55:44;5.20;;;4.72;;
6442;SDS011;3254;47.372;8.512;2023-04-03T03:58:09;5.60;;;5.30;;
6442;SDS011;3254;47.372;8.512;2023-04-03T04:00:36;4.93;;;4.63;;
6442;SDS011;3254;47.372;8.512;2023-04-03T04:03:03;5.40;;;5.10;;
6442;SDS011;3254;47.372;8.512;2023-04-03T04:05:29;5.20;;;4.80;;
6442;SDS011;3254;47.372;8.512;2023-04-03T04:07:55;5.73;;;5.33;;
6442;SDS011;3254;47.372;8.512;2023-04-03T04:10:21;6.07;;;5.40;;
6442;SDS011;3254;47.372;8.512;2023-04-03T04:12:46;5.70;;;5.30;;
6442;SDS011;3254;47.372;8.512;2023-04-03T04:15:14;5.72;;;5.38;;
6442;SDS011;3254;47.372;8.512;2023-04-03T04:17:39;6.50;;;6.00;;
6442;SDS011;3254;47.372;8.512;2023-04-03T04:20:05;5.87;;;5.37;;
6442;SDS011;3254;47.372;8.512;2023-04-03T04:22:31;7.00;;;6.45;;
6442;SDS011;3254;47.372;8.512;2023-04-03T04:24:56;6.00;;;5.60;;
6442;SDS011;3254;47.372;8.512;2023-04-03T04:27:22;7.10;;;6.50;;
6442;SDS011;3254;47.372;8.512;2023-04-03T04:29:48;5.90;;;5.50;;
6442;SDS011;3254;47.372;8.512;2023-04-03T04:32:14;6.77;;;6.13;;
6442;SDS011;3254;47.372;8.512;2023-04-03T04:34:41;15.23;;;6.32;;
6442;SDS011;3254;47.372;8.512;2023-04-03T04:37:07;6.33;;;5.93;;
6442;SDS011;3254;47.372;8.512;2023-04-03T04:39:34;5.63;;;5.22;;
6442;SDS011;3254;47.372;8.512;2023-04-03T04:42:00;5.78;;;5.28;;
6442;SDS011;3254;47.372;8.512;2023-04-03T04:44:26;5.47;;;5.07;;
6442;SDS011;3254;47.372;8.512;2023-04-03T04:46:52;6.90;;;6.20;;
6442;SDS011;3254;47.372;8.512;2023-04-03T04:49:17;6.47;;;5.97;;
6442;SDS011;3254;47.372;8.512;2023-04-03T04:51:43;6.07;;;5.67;;
6442;SDS011;3254;47.372;8.512;2023-04-03T04:54:09;6.00;;;5.50;;
6442;SDS011;3254;47.372;8.512;2023-04-03T04:56:36;6.65;;;5.50;;
6442;SDS011;3254;47.372;8.512;2023-04-03T04:59:02;5.87;;;5.40;;
6442;SDS011;3254;47.372;8.512;2023-04-03T05:01:27;6.30;;;5.80;;
6442;SDS011;3254;47.372;8.512;2023-04-03T05:03:53;7.13;;;6.53;;
6442;SDS011;3254;47.372;8.512;2023-04-03T05:06:20;7.78;;;5.80;;
6442;SDS011;3254;47.372;8.512;2023-04-03T05:08:46;6.87;;;6.17;;
6442;SDS011;3254;47.372;8.512;2023-04-03T05:11:12;6.67;;;6.07;;
6442;SDS011;3254;47.372;8.512;2023-04-03T05:13:37;7.80;;;6.10;;
6442;SDS011;3254;47.372;8.512;2023-04-03T05:16:04;6.30;;;5.80;;
6442;SDS011;3254;47.372;8.512;2023-04-03T05:18:31;5.68;;;5.28;;
6442;SDS011;3254;47.372;8.512;2023-04-03T05:20:57;6.67;;;6.17;;
6442;SDS011;3254;47.372;8.512;2023-04-03T05:23:23;6.07;;;5.60;;
6442;SDS011;3254;47.372;8.512;2023-04-03T05:25:50;6.50;;;5.87;;
6442;SDS011;3254;47.372;8.512;2023-04-03T05:28:16;6.32;;;5.82;;
6442;SDS011;3254;47.372;8.512;2023-04-03T05:30:42;5.75;;;5.35;;
6442;SDS011;3254;47.372;8.512;2023-04-03T05:33:09;7.30;;;6.70;;
6442;SDS011;3254;47.372;8.512;2023-04-03T05:35:40;6.32;;;5.82;;
6442;SDS011;3254;47.372;8.512;2023-04-03T05:38:08;6.38;;;5.88;;
6442;SDS011;3254;47.372;8.512;2023-04-03T05:40:34;5.93;;;5.50;;
6442;SDS011;3254;47.372;8.512;2023-04-03T05:43:02;5.57;;;5.20;;
6442;SDS011;3254;47.372;8.512;2023-04-03T05:45:27;5.15;;;4.85;;
6442;SDS011;3254;47.372;8.512;2023-04-03T05:47:54;4.63;;;4.28;;
6442;SDS011;3254;47.372;8.512;2023-04-03T05:50:19;4.77;;;4.47;;
6442;SDS011;3254;47.372;8.512;2023-04-03T05:52:45;4.70;;;4.40;;
6442;SDS011;3254;47.372;8.512;2023-04-03T05:55:14;6.07;;;4.30;;
6442;SDS011;3254;47.372;8.512;2023-04-03T05:57:39;4.10;;;3.80;;
6442;SDS011;3254;47.372;8.512;2023-04-03T06:00:05;4.93;;;4.53;;
6442;SDS011;3254;47.372;8.512;2023-04-03T06:02:34;4.40;;;4.20;;
6442;SDS011;3254;47.372;8.512;2023-04-03T06:05:00;4.95;;;4.55;;
6442;SDS011;3254;47.372;8.512;2023-04-03T06:07:27;4.75;;;4.40;;
6442;SDS011;3254;47.372;8.512;2023-04-03T06:09:53;4.25;;;3.95;;
6442;SDS011;3254;47.372;8.512;2023-04-03T06:12:20;4.40;;;4.20;;
6442;SDS011;3254;47.372;8.512;2023-04-03T06:14:48;5.03;;;4.63;;
6442;SDS011;3254;47.372;8.512;2023-04-03T06:17:14;5.47;;;4.97;;
6442;SDS011;3254;47.372;8.512;2023-04-03T06:19:40;5.80;;;5.28;;
6442;SDS011;3254;47.372;8.512;2023-04-03T06:22:06;7.30;;;4.53;;
6442;SDS011;3254;47.372;8.512;2023-04-03T06:24:33;4.97;;;4.57;;
6442;SDS011;3254;47.372;8.512;2023-04-03T06:27:00;4.90;;;4.60;;
6442;SDS011;3254;47.372;8.512;2023-04-03T06:29:26;4.32;;;4.05;;
6442;SDS011;3254;47.372;8.512;2023-04-03T06:31:54;5.05;;;4.70;;
6442;SDS011;3254;47.372;8.512;2023-04-03T06:34:20;4.30;;;4.10;;
6442;SDS011;3254;47.372;8.512;2023-04-03T06:36:46;4.37;;;4.07;;
6442;SDS011;3254;47.372;8.512;2023-04-03T06:39:16;4.33;;;4.10;;
6442;SDS011;3254;47.372;8.512;2023-04-03T06:41:47;4.90;;;3.95;;
6442;SDS011;3254;47.372;8.512;2023-04-03T06:44:13;4.15;;;3.95;;
6442;SDS011;3254;47.372;8.512;2023-04-03T06:46:42;4.13;;;3.70;;
6442;SDS011;3254;47.372;8.512;2023-04-03T06:49:09;3.95;;;3.75;;
6442;SDS011;3254;47.372;8.512;2023-04-03T06:51:34;4.20;;;3.87;;
6442;SDS011;3254;47.372;8.512;2023-04-03T06:54:01;4.60;;;4.20;;
6442;SDS011;3254;47.372;8.512;2023-04-03T06:56:30;4.32;;;4.13;;
6442;SDS011;3254;47.372;8.512;2023-04-03T06:58:56;4.40;;;4.10;;
6442;SDS011;3254;47.372;8.512;2023-04-03T07:01:23;3.40;;;3.20;;
6442;SDS011;3254;47.372;8.512;2023-04-03T07:03:51;4.28;;;4.07;;
6442;SDS011;3254;47.372;8.512;2023-04-03T07:06:17;4.15;;;3.95;;
6442;SDS011;3254;47.372;8.512;2023-04-03T07:08:46;4.70;;;4.15;;
6442;SDS011;3254;47.372;8.512;2023-04-03T07:11:15;4.05;;;3.85;;
6442;SDS011;3254;47.372;8.512;2023-04-03T07:13:42;4.05;;;3.75;;
6442;SDS011;3254;47.372;8.512;2023-04-03T07:16:08;3.60;;;3.20;;
6442;SDS011;3254;47.372;8.512;2023-04-03T07:18:34;3.57;;;3.37;;
6442;SDS011;3254;47.372;8.512;2023-04-03T07:21:00;3.40;;;3.20;;
6442;SDS011;3254;47.372;8.512;2023-04-03T07:23:27;3.95;;;3.60;;
6442;SDS011;3254;47.372;8.512;2023-04-03T07:25:52;5.80;;;3.07;;
6442;SDS011;3254;47.372;8.512;2023-04-03T07:28:19;3.67;;;3.47;;
6442;SDS011;3254;47.372;8.512;2023-04-03T07:30:46;3.30;;;3.10;;
6442;SDS011;3254;47.372;8.512;2023-04-03T07:33:14;3.67;;;3.47;;
6442;SDS011;3254;47.372;8.512;2023-04-03T07:35:42;3.15;;;2.90;;
6442;SDS011;3254;47.372;8.512;2023-04-03T07:38:08;3.38;;;3.17;;
6442;SDS011;3254;47.372;8.512;2023-04-03T07:40:34;3.38;;;3.22;;
6442;SDS011;3254;47.372;8.512;2023-04-03T07:43:00;2.93;;;2.83;;
6442;SDS011;3254;47.372;8.512;2023-04-03T07:45:25;3.53;;;3.23;;
6442;SDS011;3254;47.372;8.512;2023-04-03T07:47:55;2.90;;;2.70;;
6442;SDS011;3254;47.372;8.512;2023-04-03T07:50:21;3.17;;;3.07;;
6442;SDS011;3254;47.372;8.512;2023-04-03T07:52:47;3.47;;;3.28;;
6442;SDS011;3254;47.372;8.512;2023-04-03T07:55:15;3.20;;;3.00;;
6442;SDS011;3254;47.372;8.512;2023-04-03T07:57:41;2.80;;;2.50;;
6442;SDS011;3254;47.372;8.512;2023-04-03T08:00:09;2.90;;;2.80;;
6442;SDS011;3254;47.372;8.512;2023-04-03T08:02:35;3.45;;;3.25;;
6442;SDS011;3254;47.372;8.512;2023-04-03T08:05:03;3.83;;;3.20;;
6442;SDS011;3254;47.372;8.512;2023-04-03T08:07:29;3.40;;;3.20;;
6442;SDS011;3254;47.372;8.512;2023-04-03T08:09:56;3.03;;;2.73;;
6442;SDS011;3254;47.372;8.512;2023-04-03T08:12:23;3.17;;;2.90;;
6442;SDS011;3254;47.372;8.512;2023-04-03T08:14:49;2.87;;;2.77;;
6442;SDS011;3254;47.372;8.512;2023-04-03T08:17:15;4.33;;;2.73;;
6442;SDS011;3254;47.372;8.512;2023-04-03T08:19:41;3.27;;;3.07;;
6442;SDS011;3254;47.372;8.512;2023-04-03T08:22:08;3.40;;;3.20;;
6442;SDS011;3254;47.372;8.512;2023-04-03T08:24:33;2.93;;;2.73;;
6442;SDS011;3254;47.372;8.512;2023-04-03T08:26:59;3.50;;;3.30;;
6442;SDS011;3254;47.372;8.512;2023-04-03T08:29:26;3.43;;;2.90;;
6442;SDS011;3254;47.372;8.512;2023-04-03T08:31:52;2.60;;;2.50;;
6442;SDS011;3254;47.372;8.512;2023-04-03T08:34:18;6.10;;;2.80;;
6442;SDS011;3254;47.372;8.512;2023-04-03T08:36:44;2.87;;;2.67;;
6442;SDS011;3254;47.372;8.512;2023-04-03T08:39:10;3.40;;;3.20;;
6442;SDS011;3254;47.372;8.512;2023-04-03T08:41:37;2.40;;;2.27;;
6442;SDS011;3254;47.372;8.512;2023-04-03T08:44:26;2.60;;;2.50;;
6442;SDS011;3254;47.372;8.512;2023-04-03T08:52:36;3.07;;;2.73;;
6442;SDS011;3254;47.372;8.512;2023-04-03T08:55:12;3.20;;;3.00;;
6442;SDS011;3254;47.372;8.512;2023-04-03T08:58:00;3.60;;;2.93;;
6442;SDS011;3254;47.372;8.512;2023-04-03T09:00:29;3.70;;;3.40;;
6442;SDS011;3254;47.372;8.512;2023-04-03T09:03:16;3.37;;;2.77;;
6442;SDS011;3254;47.372;8.512;2023-04-03T09:05:51;2.90;;;2.80;;
6442;SDS011;3254;47.372;8.512;2023-04-03T09:08:30;3.53;;;3.33;;
6442;SDS011;3254;47.372;8.512;2023-04-03T09:11:16;3.10;;;2.80;;
6442;SDS011;3254;47.372;8.512;2023-04-03T09:19:04;3.10;;;2.90;;
6442;SDS011;3254;47.372;8.512;2023-04-03T09:21:39;3.00;;;2.87;;
6442;SDS011;3254;47.372;8.512;2023-04-03T09:24:07;3.67;;;3.37;;
6442;SDS011;3254;47.372;8.512;2023-04-03T09:26:42;3.23;;;3.03;;
6442;SDS011;3254;47.372;8.512;2023-04-03T09:29:14;3.07;;;2.80;;
6442;SDS011;3254;47.372;8.512;2023-04-03T09:31:43;2.73;;;2.53;;
6442;SDS011;3254;47.372;8.512;2023-04-03T09:36:52;2.80;;;2.70;;
6442;SDS011;3254;47.372;8.512;2023-04-03T09:39:22;3.00;;;2.80;;
6442;SDS011;3254;47.372;8.512;2023-04-03T09:42:39;3.00;;;2.90;;
6442;SDS011;3254;47.372;8.512;2023-04-03T09:44:48;2.90;;;2.80;;
6442;SDS011;3254;47.372;8.512;2023-04-03T09:47:23;2.40;;;2.30;;
6442;SDS011;3254;47.372;8.512;2023-04-03T09:50:08;4.13;;;2.90;;
6442;SDS011;3254;47.372;8.512;2023-04-03T09:52:40;3.20;;;3.00;;
6442;SDS011;3254;47.372;8.512;2023-04-03T09:55:08;2.90;;;2.70;;
6442;SDS011;3254;47.372;8.512;2023-04-03T09:57:43;2.60;;;2.50;;
6442;SDS011;3254;47.372;8.512;2023-04-03T10:00:53;7.87;;;2.97;;
6442;SDS011;3254;47.372;8.512;2023-04-03T10:03:05;3.57;;;3.27;;
6442;SDS011;3254;47.372;8.512;2023-04-03T10:05:48;3.93;;;2.90;;
6442;SDS011;3254;47.372;8.512;2023-04-03T10:08:26;2.80;;;2.70;;
6442;SDS011;3254;47.372;8.512;2023-04-03T10:11:10;2.90;;;2.80;;
6442;SDS011;3254;47.372;8.512;2023-04-03T10:13:56;3.30;;;3.10;;
6442;SDS011;3254;47.372;8.512;2023-04-03T10:16:32;3.80;;;3.33;;
6442;SDS011;3254;47.372;8.512;2023-04-03T10:24:24;2.77;;;2.67;;
6442;SDS011;3254;47.372;8.512;2023-04-03T10:27:23;4.03;;;3.10;;
6442;SDS011;3254;47.372;8.512;2023-04-03T10:30:19;3.73;;;2.80;;
6442;SDS011;3254;47.372;8.512;2023-04-03T10:33:08;3.00;;;2.80;;
6442;SDS011;3254;47.372;8.512;2023-04-03T10:38:31;3.10;;;3.00;;
6442;SDS011;3254;47.372;8.512;2023-04-03T10:46:32;2.60;;;2.50;;
6442;SDS011;3254;47.372;8.512;2023-04-03T10:52:01;3.27;;;3.17;;
6442;SDS011;3254;47.372;8.512;2023-04-03T10:54:40;2.80;;;2.70;;
6442;SDS011;3254;47.372;8.512;2023-04-03T10:57:11;2.90;;;2.80;;
6442;SDS011;3254;47.372;8.512;2023-04-03T10:59:50;3.43;;;3.23;;
6442;SDS011;3254;47.372;8.512;2023-04-03T11:02:23;3.20;;;3.10;;
6442;SDS011;3254;47.372;8.512;2023-04-03T11:04:51;2.80;;;2.70;;
6442;SDS011;3254;47.372;8.512;2023-04-03T11:07:27;3.70;;;3.20;;
6442;SDS011;3254;47.372;8.512;2023-04-03T11:10:00;3.40;;;3.20;;
6442;SDS011;3254;47.372;8.512;2023-04-03T11:12:33;3.10;;;2.90;;
6442;SDS011;3254;47.372;8.512;2023-04-03T11:15:05;3.40;;;3.20;;
6442;SDS011;3254;47.372;8.512;2023-04-03T11:17:54;3.13;;;2.83;;
6442;SDS011;3254;47.372;8.512;2023-04-03T11:20:26;3.47;;;3.27;;
6442;SDS011;3254;47.372;8.512;2023-04-03T11:23:31;3.20;;;3.10;;
6442;SDS011;3254;47.372;8.512;2023-04-03T11:25:51;3.20;;;2.93;;
6442;SDS011;3254;47.372;8.512;2023-04-03T11:28:20;3.47;;;3.27;;
6442;SDS011;3254;47.372;8.512;2023-04-03T11:31:08;7.83;;;3.00;;
6442;SDS011;3254;47.372;8.512;2023-04-03T11:36:26;3.07;;;2.97;;
6442;SDS011;3254;47.372;8.512;2023-04-03T11:38:56;3.40;;;3.20;;
6442;SDS011;3254;47.372;8.512;2023-04-03T11:41:31;3.30;;;3.10;;
6442;SDS011;3254;47.372;8.512;2023-04-03T11:43:59;3.57;;;3.37;;
6442;SDS011;3254;47.372;8.512;2023-04-03T11:58:12;3.20;;;3.00;;
6442;SDS011;3254;47.372;8.512;2023-04-03T12:16:23;3.00;;;2.80;;
6442;SDS011;3254;47.372;8.512;2023-04-03T12:26:36;5.10;;;3.97;;
6442;SDS011;3254;47.372;8.512;2023-04-03T12:34:52;3.60;;;3.00;;
6442;SDS011;3254;47.372;8.512;2023-04-03T12:40:26;3.10;;;3.00;;
6442;SDS011;3254;47.372;8.512;2023-04-03T12:46:00;3.10;;;2.90;;
6442;SDS011;3254;47.372;8.512;2023-04-03T12:54:22;3.87;;;3.53;;
6442;SDS011;3254;47.372;8.512;2023-04-03T12:56:48;8.50;;;3.70;;
6442;SDS011;3254;47.372;8.512;2023-04-03T12:59:25;6.57;;;2.90;;
6442;SDS011;3254;47.372;8.512;2023-04-03T13:01:55;4.10;;;3.30;;
6442;SDS011;3254;47.372;8.512;2023-04-03T13:04:23;2.80;;;2.70;;
6442;SDS011;3254;47.372;8.512;2023-04-03T13:06:50;3.30;;;3.03;;
6442;SDS011;3254;47.372;8.512;2023-04-03T13:09:23;3.53;;;3.23;;
6442;SDS011;3254;47.372;8.512;2023-04-03T13:12:12;5.00;;;3.30;;
6442;SDS011;3254;47.372;8.512;2023-04-03T13:14:40;3.17;;;2.97;;
6442;SDS011;3254;47.372;8.512;2023-04-03T13:17:16;3.40;;;3.20;;
6442;SDS011;3254;47.372;8.512;2023-04-03T13:19:42;3.50;;;3.30;;
6442;SDS011;3254;47.372;8.512;2023-04-03T13:22:22;3.33;;;3.13;;
6442;SDS011;3254;47.372;8.512;2023-04-03T13:24:56;2.90;;;2.60;;
6442;SDS011;3254;47.372;8.512;2023-04-03T13:27:24;3.40;;;3.20;;
6442;SDS011;3254;47.372;8.512;2023-04-03T13:29:51;4.93;;;3.00;;
6442;SDS011;3254;47.372;8.512;2023-04-03T13:32:20;3.47;;;3.27;;
6442;SDS011;3254;47.372;8.512;2023-04-03T13:34:49;3.20;;;3.10;;
6442;SDS011;3254;47.372;8.512;2023-04-03T13:37:19;3.37;;;3.17;;
6442;SDS011;3254;47.372;8.512;2023-04-03T13:42:28;3.40;;;3.10;;
6442;SDS011;3254;47.372;8.512;2023-04-03T13:47:54;2.70;;;2.60;;
6442;SDS011;3254;47.372;8.512;2023-04-03T13:50:48;3.13;;;2.70;;
6442;SDS011;3254;47.372;8.512;2023-04-03T13:53:22;3.50;;;3.30;;
6442;SDS011;3254;47.372;8.512;2023-04-03T13:55:54;3.17;;;2.90;;
6442;SDS011;3254;47.372;8.512;2023-04-03T13:58:22;3.03;;;2.93;;
6442;SDS011;3254;47.372;8.512;2023-04-03T14:00:51;2.70;;;2.60;;
6442;SDS011;3254;47.372;8.512;2023-04-03T14:05:47;2.83;;;2.63;;
6442;SDS011;3254;47.372;8.512;2023-04-03T14:08:14;3.93;;;2.83;;
6442;SDS011;3254;47.372;8.512;2023-04-03T14:10:41;4.70;;;3.13;;
6442;SDS011;3254;47.372;8.512;2023-04-03T14:13:08;2.67;;;2.57;;
6442;SDS011;3254;47.372;8.512;2023-04-03T14:15:38;3.40;;;3.30;;
6442;SDS011;3254;47.372;8.512;2023-04-03T14:18:04;3.13;;;2.93;;
6442;SDS011;3254;47.372;8.512;2023-04-03T14:20:30;3.50;;;3.23;;
6442;SDS011;3254;47.372;8.512;2023-04-03T14:22:56;2.87;;;2.67;;
6442;SDS011;3254;47.372;8.512;2023-04-03T14:25:22;2.97;;;2.77;;
6442;SDS011;3254;47.372;8.512;2023-04-03T14:27:49;2.70;;;2.60;;
6442;SDS011;3254;47.372;8.512;2023-04-03T14:30:21;6.00;;;2.80;;
6442;SDS011;3254;47.372;8.512;2023-04-03T14:32:49;4.83;;;3.07;;
6442;SDS011;3254;47.372;8.512;2023-04-03T14:35:15;3.17;;;2.90;;
6442;SDS011;3254;47.372;8.512;2023-04-03T14:37:42;3.50;;;3.30;;
6442;SDS011;3254;47.372;8.512;2023-04-03T14:40:08;4.67;;;3.40;;
6442;SDS011;3254;47.372;8.512;2023-04-03T14:42:41;2.90;;;2.67;;
6442;SDS011;3254;47.372;8.512;2023-04-03T14:45:08;3.30;;;3.00;;
6442;SDS011;3254;47.372;8.512;2023-04-03T14:47:46;3.23;;;3.03;;
6442;SDS011;3254;47.372;8.512;2023-04-03T14:50:16;3.03;;;2.80;;
6442;SDS011;3254;47.372;8.512;2023-04-03T14:52:46;3.10;;;2.90;;
6442;SDS011;3254;47.372;8.512;2023-04-03T14:55:15;2.97;;;2.67;;
6442;SDS011;3254;47.372;8.512;2023-04-03T14:57:42;3.30;;;3.17;;
6442;SDS011;3254;47.372;8.512;2023-04-03T15:00:12;3.13;;;3.03;;
6442;SDS011;3254;47.372;8.512;2023-04-03T15:02:40;2.70;;;2.50;;
6442;SDS011;3254;47.372;8.512;2023-04-03T15:05:07;3.00;;;2.80;;
6442;SDS011;3254;47.372;8.512;2023-04-03T15:07:35;3.10;;;2.90;;
6442;SDS011;3254;47.372;8.512;2023-04-03T15:12:42;2.57;;;2.47;;
6442;SDS011;3254;47.372;8.512;2023-04-03T15:15:08;4.10;;;3.00;;
6442;SDS011;3254;47.372;8.512;2023-04-03T15:17:35;2.23;;;2.13;;
6442;SDS011;3254;47.372;8.512;2023-04-03T15:20:01;3.00;;;2.80;;
6442;SDS011;3254;47.372;8.512;2023-04-03T15:22:27;3.00;;;2.87;;
6442;SDS011;3254;47.372;8.512;2023-04-03T15:24:53;2.80;;;2.70;;
6442;SDS011;3254;47.372;8.512;2023-04-03T15:27:19;3.30;;;3.10;;
6442;SDS011;3254;47.372;8.512;2023-04-03T15:29:45;2.87;;;2.67;;
6442;SDS011;3254;47.372;8.512;2023-04-03T15:32:11;3.00;;;2.80;;
6442;SDS011;3254;47.372;8.512;2023-04-03T15:34:40;3.13;;;2.63;;
6442;SDS011;3254;47.372;8.512;2023-04-03T15:37:06;2.83;;;2.57;;
6442;SDS011;3254;47.372;8.512;2023-04-03T15:39:31;2.60;;;2.40;;
6442;SDS011;3254;47.372;8.512;2023-04-03T15:41:57;4.20;;;2.67;;
6442;SDS011;3254;47.372;8.512;2023-04-03T15:44:31;7.73;;;2.70;;
6442;SDS011;3254;47.372;8.512;2023-04-03T15:46:58;2.70;;;2.60;;
6442;SDS011;3254;47.372;8.512;2023-04-03T15:49:25;2.60;;;2.40;;
6442;SDS011;3254;47.372;8.512;2023-04-03T15:51:51;2.80;;;2.70;;
6442;SDS011;3254;47.372;8.512;2023-04-03T15:54:17;3.10;;;2.87;;
6442;SDS011;3254;47.372;8.512;2023-04-03T15:56:43;2.83;;;2.73;;
6442;SDS011;3254;47.372;8.512;2023-04-03T15:59:08;6.17;;;2.47;;
6442;SDS011;3254;47.372;8.512;2023-04-03T16:01:34;5.77;;;2.60;;
6442;SDS011;3254;47.372;8.512;2023-04-03T16:04:00;3.20;;;2.77;;
6442;SDS011;3254;47.372;8.512;2023-04-03T16:06:26;3.80;;;2.93;;
6442;SDS011;3254;47.372;8.512;2023-04-03T16:08:54;5.77;;;3.60;;
6442;SDS011;3254;47.372;8.512;2023-04-03T16:11:22;3.30;;;3.03;;
6442;SDS011;3254;47.372;8.512;2023-04-03T16:13:52;2.83;;;2.60;;
6442;SDS011;3254;47.372;8.512;2023-04-03T16:16:18;3.30;;;3.10;;
6442;SDS011;3254;47.372;8.512;2023-04-03T16:18:44;2.93;;;2.83;;
6442;SDS011;3254;47.372;8.512;2023-04-03T16:21:14;3.00;;;2.80;;
6442;SDS011;3254;47.372;8.512;2023-04-03T16:23:42;3.00;;;2.90;;
6442;SDS011;3254;47.372;8.512;2023-04-03T16:26:08;3.00;;;2.90;;
6442;SDS011;3254;47.372;8.512;2023-04-03T16:28:34;7.30;;;2.93;;
6442;SDS011;3254;47.372;8.512;2023-04-03T16:30:59;3.07;;;2.87;;
6442;SDS011;3254;47.372;8.512;2023-04-03T16:33:26;3.73;;;3.20;;
6442;SDS011;3254;47.372;8.512;2023-04-03T16:35:54;8.30;;;2.57;;
6442;SDS011;3254;47.372;8.512;2023-04-03T16:38:20;3.10;;;2.90;;
6442;SDS011;3254;47.372;8.512;2023-04-03T16:40:47;3.43;;;3.07;;
6442;SDS011;3254;47.372;8.512;2023-04-03T16:43:13;6.23;;;2.97;;
6442;SDS011;3254;47.372;8.512;2023-04-03T16:45:40;5.03;;;3.00;;
6442;SDS011;3254;47.372;8.512;2023-04-03T16:48:05;2.90;;;2.80;;
6442;SDS011;3254;47.372;8.512;2023-04-03T16:50:33;3.17;;;2.90;;
6442;SDS011;3254;47.372;8.512;2023-04-03T16:52:58;3.33;;;3.13;;
6442;SDS011;3254;47.372;8.512;2023-04-03T16:55:24;2.97;;;2.77;;
6442;SDS011;3254;47.372;8.512;2023-04-03T16:57:49;2.83;;;2.63;;
6442;SDS011;3254;47.372;8.512;2023-04-03T17:00:16;3.10;;;3.00;;
6442;SDS011;3254;47.372;8.512;2023-04-03T17:02:41;3.03;;;2.92;;
6442;SDS011;3254;47.372;8.512;2023-04-03T17:05:07;3.17;;;2.97;;